createdAt,value
2022-10-23T00:01:20.931Z,2.50
2022-10-23T00:03:53.548Z,2.50
2022-10-23T00:06:20.993Z,2.45
2022-10-23T00:08:48.901Z,2.75
2022-10-23T00:11:18.980Z,2.58
2022-10-23T00:13:46.937Z,1.80
2022-10-23T00:16:14.317Z,2.15
2022-10-23T00:18:41.386Z,2.17
2022-10-23T00:21:10.282Z,2.42
2022-10-23T00:23:37.329Z,2.70
2022-10-23T00:26:05.026Z,2.20
2022-10-23T00:28:31.836Z,2.58
2022-10-23T00:31:01.283Z,2.15
2022-10-23T00:33:28.124Z,2.78
2022-10-23T00:35:54.960Z,2.90
2022-10-23T00:38:21.777Z,2.25
2022-10-23T00:43:24.728Z,2.70
2022-10-23T00:45:51.574Z,2.35
2022-10-23T00:48:18.865Z,2.33
2022-10-23T00:50:47.840Z,2.13
2022-10-23T00:53:17.123Z,2.97
2022-10-23T00:55:46.972Z,3.83
2022-10-23T00:58:18.905Z,5.70
2022-10-23T01:00:53.133Z,6.50
2022-10-23T01:03:23.154Z,6.85
2022-10-23T01:06:29.017Z,6.35
2022-10-23T01:09:01.895Z,4.70
2022-10-23T01:11:37.987Z,3.35
2022-10-23T01:14:44.810Z,6.03
2022-10-23T01:17:30.836Z,10.98
2022-10-23T01:20:26.298Z,9.25
2022-10-23T01:22:59.285Z,6.22
2022-10-23T01:25:50.870Z,5.40
2022-10-23T01:28:28.344Z,6.03
2022-10-23T01:30:59.522Z,5.75
2022-10-23T01:33:31.604Z,6.60
2022-10-23T01:38:38.798Z,6.85
2022-10-23T01:41:31.756Z,6.47
2022-10-23T01:44:07.624Z,10.20
2022-10-23T01:46:38.252Z,7.60
2022-10-23T01:49:09.355Z,7.63
2022-10-23T01:51:37.974Z,7.55
2022-10-23T01:54:09.231Z,6.88
2022-10-23T01:56:39.126Z,6.00
2022-10-23T01:59:10.820Z,4.80
2022-10-23T02:01:41.463Z,5.43
2022-10-23T02:04:12.350Z,5.43
2022-10-23T02:06:39.373Z,4.82
2022-10-23T02:09:06.893Z,5.05
2022-10-23T02:11:39.474Z,4.65
2022-10-23T02:14:51.886Z,3.65
2022-10-23T02:17:26.966Z,3.83
2022-10-23T02:20:15.782Z,3.63
2022-10-23T02:23:08.465Z,4.05
2022-10-23T02:25:53.557Z,4.25
2022-10-23T02:28:27.956Z,4.47
2022-10-23T02:30:58.310Z,4.35
2022-10-23T02:33:27.511Z,3.78
2022-10-23T02:35:54.559Z,2.95
2022-10-23T02:38:34.220Z,2.08
2022-10-23T02:41:45.804Z,2.28
2022-10-23T02:44:15.374Z,2.40
2022-10-23T02:47:09.510Z,2.80
2022-10-23T02:49:42.440Z,2.50
2022-10-23T02:52:20.881Z,2.13
2022-10-23T02:54:50.433Z,1.77
2022-10-23T02:57:28.571Z,2.35
2022-10-23T03:00:13.287Z,2.25
2022-10-23T03:02:57.707Z,2.22
2022-10-23T03:05:29.316Z,2.17
2022-10-23T03:07:56.655Z,1.75
2022-10-23T03:10:23.521Z,2.75
2022-10-23T03:12:50.815Z,2.13
2022-10-23T03:15:18.009Z,2.08
2022-10-23T03:17:44.968Z,2.17
2022-10-23T03:20:12.425Z,2.55
2022-10-23T03:22:40.181Z,3.58
2022-10-23T03:25:07.711Z,3.53
2022-10-23T03:27:34.978Z,3.45
2022-10-23T03:30:03.889Z,3.45
2022-10-23T03:32:30.719Z,3.40
2022-10-23T03:34:57.542Z,3.08
2022-10-23T03:37:24.416Z,2.78
2022-10-23T03:39:51.451Z,3.05
2022-10-23T03:42:18.384Z,2.58
2022-10-23T03:44:45.151Z,3.10
2022-10-23T03:47:12.261Z,2.20
2022-10-23T03:49:39.633Z,2.72
2022-10-23T03:52:07.666Z,2.78
2022-10-23T03:54:34.512Z,2.42
2022-10-23T03:57:01.454Z,2.70
2022-10-23T03:59:28.671Z,2.38
2022-10-23T04:01:55.742Z,2.20
2022-10-23T04:04:22.659Z,2.38
2022-10-23T04:06:49.534Z,2.15
2022-10-23T04:09:16.687Z,2.50
2022-10-23T04:11:43.517Z,2.13
2022-10-23T04:14:13.593Z,2.20
2022-10-23T04:16:40.535Z,2.25
2022-10-23T04:19:07.635Z,2.03
2022-10-23T04:21:34.454Z,1.98
2022-10-23T04:24:01.292Z,2.33
2022-10-23T04:26:28.180Z,1.98
2022-10-23T04:28:55.106Z,2.13
2022-10-23T04:31:21.924Z,1.50
2022-10-23T04:33:48.787Z,1.90
2022-10-23T04:36:15.617Z,2.13
2022-10-23T04:38:42.452Z,2.40
2022-10-23T04:41:09.675Z,1.80
2022-10-23T04:43:36.626Z,2.03
2022-10-23T04:46:03.871Z,2.28
2022-10-23T04:48:30.749Z,2.70
2022-10-23T04:51:03.499Z,2.00
2022-10-23T04:53:31.415Z,2.50
2022-10-23T04:55:59.490Z,2.42
2022-10-23T04:58:28.161Z,2.67
2022-10-23T05:00:55.410Z,2.47
2022-10-23T05:03:23.512Z,2.50
2022-10-23T05:05:53.775Z,3.08
2022-10-23T05:08:20.707Z,3.20
2022-10-23T05:10:49.753Z,3.30
2022-10-23T05:13:19.837Z,2.88
2022-10-23T05:15:48.459Z,5.43
2022-10-23T05:18:29.826Z,5.13
2022-10-23T05:21:20.430Z,4.90
2022-10-23T05:23:47.634Z,4.22
2022-10-23T05:26:14.556Z,3.25
2022-10-23T05:28:41.376Z,3.53
2022-10-23T05:31:08.367Z,2.97
2022-10-23T05:33:36.441Z,3.78
2022-10-23T05:36:04.231Z,3.30
2022-10-23T05:38:33.610Z,3.33
2022-10-23T05:41:00.694Z,3.22
2022-10-23T05:43:31.084Z,2.90
2022-10-23T05:45:58.458Z,3.05
2022-10-23T05:48:35.538Z,3.13
2022-10-23T05:51:07.060Z,2.60
2022-10-23T05:53:36.109Z,2.45
2022-10-23T05:56:09.392Z,2.97
2022-10-23T05:58:36.470Z,2.42
2022-10-23T06:01:12.555Z,2.22
2022-10-23T06:03:40.126Z,2.35
2022-10-23T06:06:07.645Z,2.63
2022-10-23T06:08:35.589Z,2.83
2022-10-23T06:11:10.606Z,2.25
2022-10-23T06:13:37.695Z,3.22
2022-10-23T06:16:16.431Z,2.75
2022-10-23T06:18:43.663Z,2.17
2022-10-23T06:21:10.797Z,4.32
2022-10-23T06:23:38.852Z,4.57
2022-10-23T06:26:07.917Z,3.60
2022-10-23T06:28:35.223Z,2.78
2022-10-23T06:31:06.881Z,2.53
2022-10-23T06:33:33.969Z,2.80
2022-10-23T06:36:00.951Z,2.83
2022-10-23T06:38:27.766Z,2.72
2022-10-23T06:40:55.802Z,2.50
2022-10-23T06:43:22.876Z,2.13
2022-10-23T06:45:49.743Z,2.17
2022-10-23T06:48:16.771Z,2.10
2022-10-23T06:50:43.586Z,2.75
2022-10-23T06:53:12.374Z,2.50
2022-10-23T06:55:40.183Z,2.42
2022-10-23T06:58:10.635Z,2.45
2022-10-23T07:00:40.653Z,3.03
2022-10-23T07:03:09.034Z,6.10
2022-10-23T07:05:36.102Z,6.65
2022-10-23T07:08:05.124Z,5.97
2022-10-23T07:10:31.934Z,4.65
2022-10-23T07:13:01.074Z,2.75
2022-10-23T07:15:28.276Z,2.22
2022-10-23T07:17:55.637Z,2.42
2022-10-23T07:20:22.553Z,2.90
2022-10-23T07:22:56.738Z,2.50
2022-10-23T07:25:25.102Z,2.40
2022-10-23T07:27:52.434Z,2.47
2022-10-23T07:30:19.282Z,2.38
2022-10-23T07:32:46.187Z,2.55
2022-10-23T07:37:40.446Z,2.65
2022-10-23T07:40:08.130Z,3.63
2022-10-23T07:42:35.554Z,3.67
2022-10-23T07:45:04.420Z,3.30
2022-10-23T07:47:32.593Z,3.30
2022-10-23T07:49:59.730Z,4.75
2022-10-23T07:52:29.645Z,5.65
2022-10-23T07:54:57.695Z,6.20
2022-10-23T07:57:24.465Z,4.55
2022-10-23T07:59:51.247Z,4.25
2022-10-23T08:02:18.301Z,2.72
2022-10-23T08:04:48.304Z,2.50
2022-10-23T08:07:15.138Z,2.17
2022-10-23T08:09:41.920Z,1.85
2022-10-23T08:12:09.829Z,1.70
2022-10-23T08:14:36.613Z,1.60
2022-10-23T08:17:05.320Z,1.50
2022-10-23T08:19:32.531Z,1.58
2022-10-23T08:21:59.323Z,1.10
2022-10-23T08:24:26.116Z,1.05
2022-10-23T08:26:52.949Z,1.40
2022-10-23T08:29:19.807Z,1.05
2022-10-23T08:31:47.119Z,1.58
2022-10-23T08:34:14.060Z,1.25
2022-10-23T08:36:40.972Z,1.10
2022-10-23T08:39:07.840Z,1.02
2022-10-23T08:41:42.712Z,1.00
2022-10-23T08:44:36.973Z,1.50
2022-10-23T08:47:14.380Z,0.73
2022-10-23T08:49:52.117Z,0.93
2022-10-23T08:52:30.910Z,1.10
2022-10-23T08:55:12.851Z,1.10
2022-10-23T08:57:55.847Z,1.48
2022-10-23T09:00:22.897Z,1.42
2022-10-23T09:02:54.089Z,1.48
2022-10-23T09:05:42.311Z,1.42
2022-10-23T09:08:14.878Z,2.13
2022-10-23T09:11:02.793Z,1.88
2022-10-23T09:13:38.515Z,1.40
2022-10-23T09:16:29.693Z,1.58
2022-10-23T09:18:58.368Z,1.38
2022-10-23T09:21:29.962Z,1.20
2022-10-23T09:23:57.037Z,1.38
2022-10-23T09:26:23.896Z,1.45
2022-10-23T09:28:55.382Z,1.05
2022-10-23T09:31:22.174Z,1.02
2022-10-23T09:34:01.253Z,1.25
2022-10-23T09:36:29.766Z,1.38
2022-10-23T09:39:00.809Z,1.02
2022-10-23T09:41:28.907Z,1.20
2022-10-23T09:44:07.908Z,0.95
2022-10-23T09:46:40.196Z,1.00
2022-10-23T09:49:15.238Z,1.15
2022-10-23T09:51:52.726Z,1.20
2022-10-23T09:54:23.880Z,0.73
2022-10-23T09:56:53.164Z,0.40
2022-10-23T09:59:27.769Z,0.30
2022-10-23T10:01:58.176Z,0.40
2022-10-23T10:04:40.510Z,0.60
2022-10-23T10:07:20.105Z,0.38
2022-10-23T10:09:47.506Z,0.30
2022-10-23T10:12:23.061Z,0.30
2022-10-23T10:15:11.512Z,0.40
2022-10-23T10:17:45.360Z,0.20
2022-10-23T10:20:33.037Z,0.30
2022-10-23T10:23:07.101Z,0.45
2022-10-23T10:25:56.336Z,0.50
2022-10-23T10:28:35.327Z,0.40
2022-10-23T10:31:08.021Z,0.28
2022-10-23T10:33:38.312Z,0.43
2022-10-23T10:38:57.319Z,0.32
2022-10-23T10:41:35.896Z,0.43
2022-10-23T10:44:14.622Z,0.22
2022-10-23T10:46:44.339Z,0.20
2022-10-23T10:49:17.377Z,0.20
2022-10-23T10:52:11.141Z,0.28
2022-10-23T10:54:46.180Z,0.32
2022-10-23T10:57:43.370Z,0.47
2022-10-23T11:00:15.290Z,1.70
2022-10-23T11:05:31.054Z,1.52
2022-10-23T11:08:21.575Z,1.38
2022-10-23T11:10:55.044Z,1.73
2022-10-23T11:13:40.408Z,1.90
2022-10-23T11:16:28.712Z,0.90
2022-10-23T11:19:19.992Z,0.90
2022-10-23T11:21:52.157Z,1.00
2022-10-23T11:24:39.506Z,0.80
2022-10-23T11:27:23.515Z,1.08
2022-10-23T11:30:04.031Z,1.67
2022-10-23T11:33:01.571Z,0.80
2022-10-23T11:36:06.083Z,0.65
2022-10-23T11:38:37.432Z,1.00
2022-10-23T11:41:18.190Z,1.10
2022-10-23T11:44:04.033Z,0.95
2022-10-23T11:46:39.195Z,0.93
2022-10-23T11:49:20.892Z,0.88
2022-10-23T11:51:47.721Z,0.95
2022-10-23T11:54:17.574Z,0.70
2022-10-23T11:57:20.238Z,1.10
2022-10-23T11:59:50.006Z,0.73
2022-10-23T12:02:20.190Z,0.68
2022-10-23T12:04:50.310Z,0.52
2022-10-23T12:07:29.605Z,0.65
2022-10-23T12:10:00.083Z,1.40
2022-10-23T12:12:42.514Z,1.30
2022-10-23T12:15:14.555Z,1.25
2022-10-23T12:17:43.913Z,1.10
2022-10-23T12:20:11.295Z,0.60
2022-10-23T12:22:57.181Z,0.50
2022-10-23T12:25:46.893Z,0.77
2022-10-23T12:28:47.630Z,0.80
2022-10-23T12:31:33.273Z,0.88
2022-10-23T12:34:23.385Z,0.85
2022-10-23T12:37:22.644Z,1.05
2022-10-23T12:39:55.268Z,0.77
2022-10-23T12:42:24.915Z,0.60
2022-10-23T12:45:25.095Z,0.98
2022-10-23T12:47:52.605Z,0.63
2022-10-23T12:50:21.847Z,0.60
2022-10-23T12:53:03.237Z,0.43
2022-10-23T12:55:45.954Z,0.63
2022-10-23T12:58:21.821Z,0.85
2022-10-23T13:00:54.307Z,0.52
2022-10-23T13:03:24.212Z,0.60
2022-10-23T13:05:53.577Z,0.55
2022-10-23T13:08:22.711Z,0.65
2022-10-23T13:10:50.318Z,0.68
2022-10-23T13:13:23.923Z,0.68
2022-10-23T13:15:51.249Z,0.63
2022-10-23T13:18:18.471Z,0.63
2022-10-23T13:20:54.463Z,0.88
2022-10-23T13:23:34.802Z,0.45
2022-10-23T13:26:24.141Z,0.50
2022-10-23T13:28:51.117Z,0.52
2022-10-23T13:31:17.906Z,0.60
2022-10-23T13:34:18.063Z,0.57
2022-10-23T13:37:01.150Z,0.80
2022-10-23T13:39:32.999Z,0.70
2022-10-23T13:42:15.330Z,0.95
2022-10-23T13:44:42.980Z,0.65
2022-10-23T13:47:13.130Z,0.95
2022-10-23T13:49:40.236Z,0.82
2022-10-23T13:52:11.257Z,0.80
2022-10-23T13:54:38.074Z,0.52
2022-10-23T13:57:06.499Z,0.50
2022-10-23T13:59:33.327Z,0.50
2022-10-23T14:02:00.801Z,0.32
2022-10-23T14:04:27.705Z,0.60
2022-10-23T14:06:58.507Z,0.63
2022-10-23T14:09:25.743Z,0.70
2022-10-23T14:11:52.490Z,0.63
2022-10-23T14:14:19.286Z,0.55
2022-10-23T14:16:46.067Z,0.50
2022-10-23T14:19:22.981Z,1.00
2022-10-23T14:21:49.832Z,0.50
2022-10-23T14:24:16.639Z,0.43
2022-10-23T14:26:43.490Z,1.75
2022-10-23T14:29:18.429Z,0.65
2022-10-23T14:31:48.294Z,0.63
2022-10-23T14:34:15.235Z,0.90
2022-10-23T14:36:49.706Z,0.60
2022-10-23T14:39:17.540Z,0.63
2022-10-23T14:41:44.400Z,0.80
2022-10-23T14:44:11.199Z,1.08
2022-10-23T14:46:38.566Z,1.27
2022-10-23T14:49:05.730Z,0.60
2022-10-23T14:51:32.670Z,0.65
2022-10-23T14:54:01.894Z,0.70
2022-10-23T14:56:30.458Z,0.40
2022-10-23T14:59:02.739Z,0.63
2022-10-23T15:01:45.576Z,0.75
2022-10-23T15:04:15.250Z,4.43
2022-10-23T15:06:42.431Z,5.13
2022-10-23T15:09:09.436Z,2.55
2022-10-23T15:11:53.697Z,1.40
2022-10-23T15:14:20.515Z,0.90
2022-10-23T15:16:48.257Z,1.50
2022-10-23T15:19:18.492Z,1.17
2022-10-23T15:21:47.103Z,1.00
2022-10-23T15:24:14.896Z,0.80
2022-10-23T15:26:43.385Z,0.70
2022-10-23T15:29:14.803Z,0.80
2022-10-23T15:31:47.007Z,0.98
2022-10-23T15:34:19.567Z,1.30
2022-10-23T15:36:47.685Z,0.93
2022-10-23T15:39:17.194Z,2.35
2022-10-23T15:41:44.428Z,1.20
2022-10-23T15:44:17.103Z,0.60
2022-10-23T15:46:44.103Z,1.38
2022-10-23T15:49:11.483Z,1.30
2022-10-23T15:51:39.616Z,2.17
2022-10-23T15:54:08.062Z,5.10
2022-10-23T15:56:35.455Z,5.65
2022-10-23T15:59:02.579Z,4.82
2022-10-23T16:01:29.596Z,4.72
2022-10-23T16:03:56.504Z,4.65
2022-10-23T16:06:23.511Z,3.85
2022-10-23T16:08:50.503Z,2.75
2022-10-23T16:11:20.727Z,1.98
2022-10-23T16:13:47.748Z,4.13
2022-10-23T16:19:05.485Z,4.88
2022-10-23T16:21:35.116Z,2.80
2022-10-23T16:24:03.898Z,1.75
2022-10-23T16:26:31.611Z,1.77
2022-10-23T16:29:01.610Z,2.00
2022-10-23T16:31:29.917Z,3.08
2022-10-23T16:34:01.321Z,3.53
2022-10-23T16:36:28.656Z,3.10
2022-10-23T16:38:55.611Z,3.20
2022-10-23T16:41:22.452Z,4.32
2022-10-23T16:43:49.333Z,4.68
2022-10-23T16:46:21.393Z,9.02
2022-10-23T16:48:50.255Z,10.10
2022-10-23T16:51:23.389Z,10.98
2022-10-23T16:53:52.611Z,10.32
2022-10-23T16:56:22.635Z,7.45
2022-10-23T16:58:49.899Z,6.40
2022-10-23T17:01:22.653Z,5.72
2022-10-23T17:03:51.393Z,4.43
2022-10-23T17:06:27.370Z,3.72
2022-10-23T17:08:55.810Z,4.07
2022-10-23T17:11:30.368Z,3.50
2022-10-23T17:13:59.328Z,4.10
2022-10-23T17:16:30.949Z,3.67
2022-10-23T17:18:58.128Z,4.53
2022-10-23T17:21:25.149Z,6.20
2022-10-23T17:23:52.792Z,3.60
2022-10-23T17:26:21.622Z,3.72
2022-10-23T17:28:48.708Z,2.63
2022-10-23T17:31:16.917Z,2.67
2022-10-23T17:33:44.373Z,3.97
2022-10-23T17:36:12.884Z,8.32
2022-10-23T17:38:41.062Z,9.57
2022-10-23T17:41:08.526Z,7.40
2022-10-23T17:43:35.871Z,6.47
2022-10-23T17:46:04.683Z,10.50
2022-10-23T17:48:31.956Z,3.40
2022-10-23T17:51:07.185Z,3.75
2022-10-23T17:53:38.419Z,2.63
2022-10-23T17:56:08.658Z,2.13
2022-10-23T17:58:36.428Z,1.73
2022-10-23T18:01:11.321Z,1.90
2022-10-23T18:03:38.905Z,2.08
2022-10-23T18:06:13.852Z,1.50
2022-10-23T18:08:41.910Z,1.77
2022-10-23T18:11:14.493Z,2.63
2022-10-23T18:13:44.155Z,2.45
2022-10-23T18:16:11.741Z,2.58
2022-10-23T18:18:40.257Z,4.15
2022-10-23T18:21:07.846Z,4.38
2022-10-23T18:23:36.281Z,3.70
2022-10-23T18:26:04.920Z,3.75
2022-10-23T18:28:32.104Z,4.88
2022-10-23T18:30:58.852Z,4.22
2022-10-23T18:33:26.585Z,5.57
2022-10-23T18:35:53.448Z,6.47
2022-10-23T18:38:20.172Z,4.65
2022-10-23T18:40:55.150Z,3.65
2022-10-23T18:43:38.797Z,4.13
2022-10-23T18:46:11.663Z,6.35
2022-10-23T18:48:38.414Z,7.55
2022-10-23T18:51:05.293Z,5.82
2022-10-23T18:53:32.033Z,4.95
2022-10-23T18:56:00.629Z,4.85
2022-10-23T18:58:27.374Z,9.88
2022-10-23T19:00:54.089Z,13.88
2022-10-23T19:03:20.852Z,10.05
2022-10-23T19:05:48.544Z,8.32
2022-10-23T19:08:15.313Z,9.48
2022-10-23T19:10:44.718Z,9.00
2022-10-23T19:13:11.482Z,7.18
2022-10-23T19:15:38.467Z,6.32
2022-10-23T19:18:06.946Z,5.35
2022-10-23T19:20:34.809Z,7.50
2022-10-23T19:23:02.435Z,5.75
2022-10-23T19:25:33.120Z,6.28
2022-10-23T19:28:01.911Z,5.63
2022-10-23T19:30:29.342Z,5.15
2022-10-23T19:32:56.209Z,4.68
2022-10-23T19:35:23.319Z,4.45
2022-10-23T19:37:50.147Z,4.68
2022-10-23T19:40:17.019Z,3.90
2022-10-23T19:42:44.403Z,3.97
2022-10-23T19:45:14.355Z,3.65
2022-10-23T19:47:42.081Z,4.22
2022-10-23T19:50:10.419Z,4.13
2022-10-23T19:52:37.627Z,3.85
2022-10-23T19:55:06.382Z,4.28
2022-10-23T19:57:37.128Z,3.22
2022-10-23T20:00:06.886Z,2.80
2022-10-23T20:05:05.779Z,2.92
2022-10-23T20:07:37.901Z,2.85
2022-10-23T20:10:08.491Z,2.72
2022-10-23T20:12:35.304Z,3.15
2022-10-23T20:15:02.069Z,2.70
2022-10-23T20:17:28.853Z,2.90
2022-10-23T20:19:56.593Z,2.65
2022-10-23T20:22:23.777Z,2.75
2022-10-23T20:24:50.803Z,3.35
2022-10-23T20:27:18.713Z,2.65
2022-10-23T20:29:46.173Z,3.00
2022-10-23T20:32:15.576Z,3.05
2022-10-23T20:34:43.047Z,3.08
2022-10-23T20:37:12.647Z,2.78
2022-10-23T20:39:39.839Z,3.08
2022-10-23T20:42:07.499Z,3.25
2022-10-23T20:44:34.346Z,4.20
2022-10-23T20:47:01.148Z,4.50
2022-10-23T20:49:28.299Z,4.00
2022-10-23T20:51:56.501Z,4.88
2022-10-23T20:54:25.181Z,4.65
2022-10-23T20:56:52.104Z,5.53
2022-10-23T20:59:19.277Z,5.57
2022-10-23T21:01:53.089Z,5.55
2022-10-23T21:04:22.724Z,4.90
2022-10-23T21:07:10.851Z,5.00
2022-10-23T21:09:39.172Z,4.18
2022-10-23T21:12:06.855Z,3.83
2022-10-23T21:14:34.506Z,3.90
2022-10-23T21:17:01.501Z,3.47
2022-10-23T21:19:28.485Z,3.47
2022-10-23T21:21:55.750Z,3.65
2022-10-23T21:24:22.553Z,3.70
2022-10-23T21:26:49.377Z,4.03
2022-10-23T21:29:19.095Z,3.63
2022-10-23T21:31:52.843Z,3.30
2022-10-23T21:34:19.900Z,4.50
2022-10-23T21:39:34.317Z,4.55
2022-10-23T21:42:01.113Z,3.95
2022-10-23T21:44:27.974Z,3.63
2022-10-23T21:46:55.304Z,3.55
2022-10-23T21:49:22.065Z,4.78
2022-10-23T21:51:48.868Z,4.35
2022-10-23T21:54:15.635Z,5.03
2022-10-23T21:56:45.387Z,5.55
2022-10-23T21:59:20.026Z,7.65
2022-10-23T22:01:48.054Z,5.60
2022-10-23T22:04:17.285Z,4.93
2022-10-23T22:06:45.316Z,3.60
2022-10-23T22:09:15.249Z,3.40
2022-10-23T22:11:42.512Z,3.45
2022-10-23T22:14:09.388Z,3.78
2022-10-23T22:16:36.381Z,3.58
2022-10-23T22:19:03.665Z,3.83
2022-10-23T22:21:37.659Z,3.78
2022-10-23T22:26:37.355Z,2.53
2022-10-23T22:29:06.740Z,3.47
2022-10-23T22:34:25.066Z,3.20
2022-10-23T22:36:58.039Z,2.67
2022-10-23T22:39:24.862Z,2.58
2022-10-23T22:41:52.228Z,2.85
2022-10-23T22:44:19.267Z,2.50
2022-10-23T22:46:46.871Z,2.83
2022-10-23T22:49:13.732Z,2.63
2022-10-23T22:51:40.841Z,3.28
2022-10-23T22:54:08.046Z,3.15
2022-10-23T22:56:35.294Z,2.50
2022-10-23T22:59:02.603Z,1.83
2022-10-23T23:01:36.733Z,1.77
2022-10-23T23:04:14.050Z,2.92
2022-10-23T23:06:50.833Z,1.58
2022-10-23T23:09:18.706Z,1.33
2022-10-23T23:11:51.868Z,1.48
2022-10-23T23:14:23.175Z,1.27
2022-10-23T23:16:52.450Z,0.90
2022-10-23T23:19:19.525Z,1.63
2022-10-23T23:21:46.334Z,1.27
2022-10-23T23:24:13.283Z,1.42
2022-10-23T23:26:40.782Z,1.10
2022-10-23T23:29:07.718Z,1.10
2022-10-23T23:31:34.536Z,0.90
2022-10-23T23:34:01.385Z,0.85
2022-10-23T23:36:28.922Z,1.67
2022-10-23T23:38:57.461Z,1.13
2022-10-23T23:41:25.938Z,1.20
2022-10-23T23:43:55.144Z,0.90
2022-10-23T23:46:22.271Z,1.02
2022-10-23T23:48:49.940Z,1.45
2022-10-23T23:51:18.779Z,0.98
2022-10-23T23:53:45.633Z,1.15
2022-10-23T23:56:12.458Z,1.40
2022-10-23T23:58:39.382Z,0.90
